Mahavelona, Madagascar
Current Conditions -  °F | °C
As of 11:00 PM on Monday 22 Dec 2014 (Local Time) from FMMT Reporting Station
Thunderstorm Thunderstorm  
Wind Chill: 82°   Ceiling: Unl
Heat Index: 91°   Visibility: 6mi
Dew Point: 77°   Wind: 2mph
Humidity: 84%   Direction: 20°NNE
Pressure: 29.85"   Gusts: NA
Location:  17.68°S, 49.52°E
Report Text: FMMT 222000Z 02002KT 9999 TS SCT017CB SCT033 28/25 Q1011
Loading
Personal Weather Stations






























Interactive Weather Map New forecast layout! Learn more

10-Day Weather Forecast

Advertisements
Track Severe Weather on mobile